Time;durP1;ratioP1;P1;durP2;ratioP2;P2;SDS_P1;SDS_P2;PMS_P1;PMS_P2;Temp;Humidity;BMP_temperature;BMP_pressure;BME280_temperature;BME280_humidity;BME280_pressure;Samples;Min_cycle;Max_cycle;Signal;HPM_P1;HPM_P2
2022/04/21 00:02:30;;;;;;;3.33;3.13;;;;;;;12.45;43.01;99831.38;4976702;28;20429;-70
2022/04/21 00:05:00;;;;;;;3.25;3.05;;;;;;;12.51;42.68;99832.19;4980577;28;20406;-70
2022/04/21 00:07:32;;;;;;;3.15;2.80;;;;;;;12.56;42.29;99824.84;4978103;28;20388;-71
2022/04/21 00:10:04;;;;;;;3.60;3.30;;;;;;;12.54;42.19;99827.03;4974601;28;20489;-71
2022/04/21 00:12:30;;;;;;;3.45;2.70;;;;;;;12.54;42.23;99827.03;4975752;28;20887;-70
2022/04/21 00:14:56;;;;;;;4.47;3.20;;;;;;;12.49;42.44;99819.69;4978228;28;20396;-71
2022/04/21 00:17:31;;;;;;;4.68;3.55;;;;;;;12.51;42.18;99824.88;4977556;28;20392;-71
2022/04/21 00:20:03;;;;;;;5.38;3.90;;;;;;;12.50;42.67;99820.50;4977335;28;20423;-71
2022/04/21 00:25:30;;;;;;;3.42;3.13;;;;;;;12.44;43.35;99814.28;4978636;28;20799;-70
2022/04/21 00:28:33;;;;;;;3.95;3.22;;;;;;;12.34;43.72;99811.56;4979678;28;20744;-70
2022/04/21 00:31:51;;;;;;;7.72;3.88;;;;;;;12.40;43.76;99810.47;4971965;28;20420;-70
2022/04/21 00:38:02;;;;;;;4.20;3.05;;;;;;;12.35;44.35;99812.34;4983249;28;20391;-70
2022/04/21 00:40:32;;;;;;;5.63;3.40;;;;;;;12.31;44.24;99801.22;4990809;28;20400;-70
2022/04/21 00:46:33;;;;;;;4.88;3.20;;;;;;;12.21;44.90;99805.84;4964654;28;20409;-70
2022/04/21 00:49:29;;;;;;;10.20;3.65;;;;;;;12.26;44.82;99801.22;4955873;28;20414;-71
2022/04/21 00:55:51;;;;;;;3.70;3.38;;;;;;;12.24;44.79;99800.69;4963774;28;20413;-70
2022/04/21 00:58:43;;;;;;;7.03;3.37;;;;;;;12.26;44.84;99797.69;4948527;28;20398;-70
2022/04/21 01:08:09;;;;;;;3.60;3.20;;;;;;;12.14;45.48;99794.44;4964830;28;20421;-71
2022/04/21 01:13:47;;;;;;;5.50;3.08;;;;;;;12.08;45.76;99792.78;4978015;28;20414;-70
2022/04/21 01:16:41;;;;;;;4.80;3.38;;;;;;;12.05;46.00;99793.34;4960215;28;20394;-70
2022/04/21 01:22:56;;;;;;;8.15;3.22;;;;;;;12.01;46.17;99803.09;4956877;28;20428;-70
2022/04/21 01:25:57;;;;;;;5.55;3.40;;;;;;;11.98;46.49;99792.78;4960829;28;20792;-70
2022/04/21 01:28:50;;;;;;;3.30;2.95;;;;;;;11.98;46.60;99799.03;4956563;28;20406;-70
2022/04/21 01:31:47;;;;;;;3.70;3.40;;;;;;;11.93;46.66;99797.13;4960110;29;20568;-71
2022/04/21 01:34:17;;;;;;;3.93;3.47;;;;;;;11.90;46.80;99797.66;4958447;28;20757;-70
2022/04/21 01:43:08;;;;;;;7.15;3.28;;;;;;;11.77;47.56;99800.91;4967297;29;20397;-70
2022/04/21 01:45:38;;;;;;;3.75;3.45;;;;;;;11.79;47.50;99798.72;4969432;28;20422;-70
2022/04/21 01:48:11;;;;;;;5.18;3.10;;;;;;;11.80;47.51;99789.50;4968729;28;20421;-70
2022/04/21 01:51:16;;;;;;;6.80;3.50;;;;;;;11.71;48.24;99787.59;4964773;28;20429;-70
2022/04/21 01:54:02;;;;;;;5.15;3.30;;;;;;;11.50;49.41;99785.84;4962497;28;20394;-70
2022/04/21 01:57:22;;;;;;;3.22;3.03;;;;;;;11.34;49.61;99779.56;4961127;29;20460;-70
2022/04/21 02:02:56;;;;;;;4.65;3.30;;;;;;;11.43;49.05;99780.69;4960888;28;20473;-70
2022/04/21 02:05:35;;;;;;;3.60;3.33;;;;;;;11.49;49.29;99782.34;4958400;29;20401;-70
2022/04/21 02:12:12;;;;;;;3.78;3.47;;;;;;;11.42;49.52;99782.59;4981396;28;20469;-70
2022/04/21 02:15:01;;;;;;;4.90;3.77;;;;;;;11.40;49.65;99784.75;4965838;28;20463;-71
2022/04/21 02:35:52;;;;;;;4.85;3.35;;;;;;;10.85;51.61;99766.34;4951567;29;20469;-71
2022/04/21 02:38:41;;;;;;;4.23;3.83;;;;;;;10.91;51.99;99764.47;4959317;28;20966;-70
2022/04/21 02:41:12;;;;;;;4.22;3.40;;;;;;;11.03;51.36;99765.06;4956309;28;20445;-70
2022/04/21 02:43:48;;;;;;;4.07;3.55;;;;;;;11.07;51.31;99754.50;4957861;28;20754;-70
2022/04/21 02:46:25;;;;;;;3.90;3.55;;;;;;;11.12;51.27;99759.97;4953782;28;20430;-70
2022/04/21 02:48:54;;;;;;;5.60;3.78;;;;;;;10.98;51.56;99762.34;4947362;28;20436;-70
2022/04/21 02:51:21;;;;;;;6.90;3.92;;;;;;;10.83;51.95;99759.56;4950457;28;20921;-70
2022/04/21 02:57:36;;;;;;;5.70;4.18;;;;;;;10.67;52.90;99760.56;4966965;28;20425;-70
2022/04/21 03:00:20;;;;;;;5.18;3.97;;;;;;;10.71;52.53;99767.06;4987668;28;20425;-70
2022/04/21 03:06:29;;;;;;;7.30;4.53;;;;;;;10.70;52.75;99757.34;4973337;29;20441;-70
2022/04/21 03:26:17;;;;;;;5.53;4.13;;;;;;;10.54;53.48;99745.56;4967691;28;20521;-70
2022/04/21 03:29:04;;;;;;;6.65;5.18;;;;;;;10.62;52.95;99753.22;4988261;28;20412;-70
2022/04/21 03:43:08;;;;;;;6.82;5.85;;;;;;;10.85;52.13;99755.53;4976496;28;20408;-70
2022/04/21 03:46:49;;;;;;;7.78;5.95;;;;;;;10.75;52.75;99760.06;4976647;28;20466;-70
2022/04/21 03:49:40;;;;;;;5.83;5.23;;;;;;;10.74;52.43;99751.09;4978543;28;20425;-71
2022/04/21 03:58:55;;;;;;;5.13;4.68;;;;;;;10.59;53.16;99758.34;4964464;29;20400;-71
2022/04/21 04:01:51;;;;;;;4.97;4.57;;;;;;;10.35;53.87;99756.03;4970600;28;20398;-70
2022/04/21 04:04:40;;;;;;;6.47;4.85;;;;;;;10.17;54.70;99758.34;4975328;28;20530;-70
2022/04/21 04:21:12;;;;;;;6.40;5.13;;;;;;;9.86;55.62;99755.34;4965757;29;20409;-71
2022/04/21 04:23:44;;;;;;;7.05;5.50;;;;;;;9.90;55.54;99747.53;4962453;28;20398;-70
2022/04/21 04:26:11;;;;;;;5.70;5.20;;;;;;;9.89;55.58;99752.09;4959174;28;20432;-71
2022/04/21 04:28:40;;;;;;;5.90;5.25;;;;;;;9.86;56.30;99751.81;4979567;28;20412;-71
2022/04/21 04:31:06;;;;;;;5.97;4.60;;;;;;;9.81;56.12;99754.47;4963106;28;20426;-71
2022/04/21 04:33:31;;;;;;;5.73;5.30;;;;;;;9.74;56.72;99760.09;4962615;29;20530;-70
2022/04/21 04:35:57;;;;;;;6.78;5.05;;;;;;;9.71;56.70;99757.91;4976250;28;20424;-71
2022/04/21 04:38:22;;;;;;;7.33;5.50;;;;;;;9.72;56.52;99761.41;4989292;28;20466;-71
2022/04/21 04:40:50;;;;;;;6.73;5.70;;;;;;;9.73;56.47;99760.34;4956317;28;20421;-70
2022/04/21 04:43:18;;;;;;;5.20;4.80;;;;;;;9.80;56.36;99761.78;4973627;28;20394;-71
2022/04/21 04:49:00;;;;;;;6.40;5.25;;;;;;;9.89;56.09;99759.41;4960636;29;20497;-71
2022/04/21 04:54:21;;;;;;;10.77;5.53;;;;;;;10.03;55.61;99755.22;4968845;28;20418;-70
2022/04/21 04:56:52;;;;;;;8.77;5.68;;;;;;;10.10;55.86;99752.28;4979148;28;20770;-70
2022/04/21 04:59:31;;;;;;;7.85;6.20;;;;;;;10.16;54.81;99757.50;4960683;28;20453;-70
2022/04/21 05:02:13;;;;;;;7.07;6.43;;;;;;;10.08;55.28;99755.22;4958989;28;20421;-71
2022/04/21 05:04:42;;;;;;;7.45;5.22;;;;;;;10.10;55.34;99747.69;4959050;29;20413;-70
2022/04/21 05:07:33;;;;;;;8.00;5.35;;;;;;;10.03;55.67;99755.22;4973484;28;20414;-70
2022/04/21 05:10:23;;;;;;;5.78;5.28;;;;;;;10.05;55.58;99752.22;4957748;28;20425;-70
2022/04/21 05:12:54;;;;;;;5.82;5.32;;;;;;;10.10;55.73;99758.53;4959990;28;20413;-70
2022/04/21 05:15:22;;;;;;;5.43;4.93;;;;;;;10.11;55.50;99760.13;4942178;29;20540;-70
2022/04/21 05:17:53;;;;;;;5.35;4.82;;;;;;;10.18;55.40;99755.34;4957753;28;20512;-70
2022/04/21 05:20:24;;;;;;;5.82;5.32;;;;;;;10.14;55.58;99756.16;4952500;28;20500;-70
2022/04/21 05:22:59;;;;;;;5.80;5.38;;;;;;;10.22;55.12;99758.34;4954941;29;20398;-71
2022/04/21 05:25:30;;;;;;;7.10;6.40;;;;;;;10.24;55.07;99759.72;4957238;28;20754;-70
2022/04/21 05:27:56;;;;;;;6.70;6.00;;;;;;;10.04;56.04;99748.72;4956238;29;20406;-70
2022/04/21 05:33:10;;;;;;;9.90;6.47;;;;;;;9.97;56.59;99752.72;4957200;29;20437;-70
2022/04/21 05:35:37;;;;;;;13.53;6.97;;;;;;;10.00;56.41;99755.72;4950704;29;20398;-70
2022/04/21 05:38:04;;;;;;;8.23;6.55;;;;;;;10.16;56.16;99749.38;4955254;28;20425;-70
2022/04/21 05:40:45;;;;;;;7.97;6.50;;;;;;;10.19;55.94;99751.56;4957406;29;20457;-70
2022/04/21 05:43:20;;;;;;;7.60;6.60;;;;;;;10.22;55.91;99750.22;4956334;29;20406;-70
2022/04/21 05:45:48;;;;;;;7.70;6.38;;;;;;;10.27;55.28;99742.16;4948204;29;20402;-70
2022/04/21 05:48:16;;;;;;;7.20;6.50;;;;;;;10.25;55.48;99744.28;4956357;28;20410;-70
2022/04/21 05:50:49;;;;;;;6.72;6.10;;;;;;;10.22;56.20;99745.63;4969674;28;22303;-68
2022/04/21 05:53:21;;;;;;;8.43;7.30;;;;;;;10.31;55.87;99749.50;4969492;28;20428;-70
2022/04/21 05:55:47;;;;;;;7.40;6.70;;;;;;;10.36;55.45;99752.25;4955446;28;20397;-70
2022/04/21 05:58:12;;;;;;;7.60;6.90;;;;;;;10.41;55.40;99757.69;4954979;28;20461;-70
2022/04/21 06:00:38;;;;;;;7.37;6.63;;;;;;;10.28;55.74;99750.00;4955767;29;20409;-70
2022/04/21 06:03:04;;;;;;;7.32;6.63;;;;;;;10.27;56.41;99748.38;4955554;28;20484;-70
2022/04/21 06:05:29;;;;;;;7.30;6.55;;;;;;;10.34;56.15;99748.97;4955142;28;20394;-70
2022/04/21 06:07:55;;;;;;;10.77;7.47;;;;;;;10.38;55.84;99749.25;4944602;29;20418;-68
2022/04/21 06:10:20;;;;;;;12.50;6.70;;;;;;;10.31;55.82;99745.97;4954956;28;20904;-70
2022/04/21 06:12:45;;;;;;;7.77;6.50;;;;;;;10.34;55.75;99742.75;4955861;29;20417;-70
2022/04/21 06:15:11;;;;;;;7.57;6.60;;;;;;;10.34;55.78;99742.75;4947359;28;20416;-70
2022/04/21 06:17:36;;;;;;;8.77;7.40;;;;;;;10.34;55.80;99745.47;4954358;29;20417;-70
2022/04/21 06:20:01;;;;;;;11.30;7.23;;;;;;;10.37;55.90;99739.53;4952456;28;20478;-70
2022/04/21 06:22:26;;;;;;;10.77;7.27;;;;;;;10.43;56.05;99743.06;4944760;29;20410;-70
2022/04/21 06:24:52;;;;;;;9.07;7.07;;;;;;;10.45;55.87;99738.19;4955247;28;20535;-70
2022/04/21 06:27:17;;;;;;;11.27;7.30;;;;;;;10.48;55.79;99740.38;4947009;29;20414;-70
2022/04/21 06:29:44;;;;;;;9.23;6.90;;;;;;;10.35;56.22;99733.53;4955509;28;20406;-70
2022/04/21 06:32:09;;;;;;;7.40;6.78;;;;;;;10.37;56.51;99744.94;4949850;28;20429;-70
2022/04/21 06:34:35;;;;;;;13.40;7.73;;;;;;;10.40;56.17;99739.00;4951071;28;20426;-70
2022/04/21 06:37:00;;;;;;;8.20;7.13;;;;;;;10.48;55.95;99738.50;4953149;28;20877;-70
2022/04/21 06:39:26;;;;;;;8.13;7.27;;;;;;;10.51;56.40;99729.03;4953494;28;20436;-70
2022/04/21 06:41:51;;;;;;;8.43;7.50;;;;;;;10.55;56.09;99732.84;4951890;28;20410;-70
2022/04/21 06:49:44;;;;;;;9.40;7.95;;;;;;;10.72;55.70;99728.06;4943997;28;20452;-70
2022/04/21 06:52:09;;;;;;;11.30;8.67;;;;;;;10.77;55.53;99736.22;4945067;28;20453;-70
2022/04/21 06:54:35;;;;;;;13.00;8.70;;;;;;;10.78;55.43;99724.31;4943007;28;20413;-70
2022/04/21 06:57:00;;;;;;;11.27;8.47;;;;;;;10.84;55.45;99729.47;4942712;28;20453;-69
2022/04/21 06:59:25;;;;;;;9.27;8.47;;;;;;;10.91;55.14;99734.66;4946378;28;20840;-69
2022/04/21 07:01:51;;;;;;;16.25;9.30;;;;;;;11.06;55.12;99740.16;4945317;29;20609;-69
2022/04/21 07:04:16;;;;;;;9.00;8.13;;;;;;;11.06;54.79;99731.22;4953307;28;20405;-70
2022/04/21 07:06:41;;;;;;;9.43;8.53;;;;;;;11.19;54.85;99741.56;4950266;28;20428;-70
2022/04/21 07:09:07;;;;;;;9.40;8.50;;;;;;;11.24;54.85;99736.13;4946988;28;20895;-70
2022/04/21 07:11:32;;;;;;;9.27;8.43;;;;;;;11.27;54.83;99736.44;4953950;28;20449;-69
2022/04/21 07:13:57;;;;;;;10.10;8.80;;;;;;;11.32;54.49;99732.94;4953436;28;20414;-69
2022/04/21 07:16:23;;;;;;;10.98;9.38;;;;;;;11.44;54.57;99730.78;4953080;28;20421;-69
2022/04/21 07:18:48;;;;;;;9.43;8.30;;;;;;;11.47;54.46;99727.53;4953966;28;20414;-70
2022/04/21 07:21:15;;;;;;;9.35;8.48;;;;;;;11.54;54.13;99727.25;4953768;28;20409;-70
2022/04/21 07:23:41;;;;;;;10.25;8.98;;;;;;;11.53;53.82;99726.44;4952833;28;20410;-69
2022/04/21 07:26:07;;;;;;;9.98;9.07;;;;;;;11.45;54.16;99727.81;4949102;28;20939;-69
2022/04/21 07:28:32;;;;;;;9.60;8.70;;;;;;;11.50;54.00;99721.56;4949537;28;20773;-69
2022/04/21 07:30:58;;;;;;;10.63;9.27;;;;;;;11.59;53.92;99722.66;4954499;28;20431;-69
2022/04/21 07:33:23;;;;;;;9.68;8.77;;;;;;;11.62;53.82;99721.31;4967153;28;20750;-71
2022/04/21 07:35:49;;;;;;;11.63;9.40;;;;;;;11.61;53.36;99723.22;4948801;28;20877;-70
2022/04/21 07:38:14;;;;;;;10.80;9.20;;;;;;;11.68;53.83;99712.09;4953546;28;20426;-70
2022/04/21 07:40:40;;;;;;;10.70;9.60;;;;;;;11.77;53.37;99715.94;4952785;28;20410;-70
2022/04/21 07:43:08;;;;;;;11.40;9.43;;;;;;;11.79;53.60;99713.75;4950364;28;20500;-70
2022/04/21 07:45:41;;;;;;;12.13;10.60;;;;;;;11.77;53.32;99714.03;4952949;28;20405;-70
2022/04/21 07:48:06;;;;;;;12.50;9.73;;;;;;;11.83;53.77;99712.94;4948293;28;20448;-70
2022/04/21 07:50:32;;;;;;;14.07;9.60;;;;;;;11.91;53.31;99703.44;4952066;28;20421;-70
2022/04/21 07:53:15;;;;;;;10.70;9.68;;;;;;;12.01;53.04;99708.06;4951316;28;20503;-70
2022/04/21 07:55:52;;;;;;;11.40;9.38;;;;;;;12.07;52.46;99702.34;4945069;28;20490;-70
2022/04/21 07:58:18;;;;;;;11.07;10.03;;;;;;;12.17;51.93;99704.25;4950297;29;20409;-70
2022/04/21 08:00:44;;;;;;;12.27;10.47;;;;;;;12.16;52.08;99713.47;4953226;28;20425;-70
2022/04/21 08:03:10;;;;;;;10.40;9.43;;;;;;;12.23;52.31;99708.59;4953160;28;20535;-71
2022/04/21 08:05:36;;;;;;;10.60;9.55;;;;;;;12.26;52.25;99711.56;4952683;29;21162;-70
2022/04/21 08:08:03;;;;;;;14.80;10.07;;;;;;;12.35;52.25;99707.19;4963791;28;20486;-70
2022/04/21 08:10:29;;;;;;;10.70;9.70;;;;;;;12.44;51.53;99702.84;4954545;28;20781;-70
2022/04/21 08:12:56;;;;;;;11.07;10.03;;;;;;;12.58;51.78;99707.72;4953324;29;20420;-70
2022/04/21 08:15:23;;;;;;;11.10;9.88;;;;;;;12.67;51.03;99706.88;4953523;28;20410;-70
2022/04/21 08:17:50;;;;;;;10.48;9.45;;;;;;;12.71;50.71;99702.47;4968485;28;20434;-70
2022/04/21 08:20:15;;;;;;;11.33;10.17;;;;;;;12.79;50.85;99703.81;4967515;28;20472;-70
2022/04/21 08:22:40;;;;;;;11.23;9.77;;;;;;;12.85;50.43;99698.09;4967301;28;20414;-70
2022/04/21 08:33:20;;;;;;;11.97;10.43;;;;;;;13.01;50.19;99707.81;4950522;28;20828;-70
2022/04/21 08:35:48;;;;;;;11.13;10.03;;;;;;;13.11;50.34;99712.41;4953008;28;20429;-70
2022/04/21 08:38:13;;;;;;;10.05;9.05;;;;;;;13.20;50.02;99709.94;4952741;28;20436;-71
2022/04/21 08:40:46;;;;;;;10.30;9.40;;;;;;;13.31;49.06;99711.50;4950039;29;20434;-71
2022/04/21 08:43:17;;;;;;;10.60;9.30;;;;;;;13.44;48.75;99717.13;4945907;28;20468;-71
2022/04/21 08:45:44;;;;;;;10.82;9.75;;;;;;;13.58;47.79;99711.06;4949917;29;20916;-70
2022/04/21 08:48:14;;;;;;;13.35;9.77;;;;;;;13.66;47.38;99714.03;4949073;29;20554;-71
2022/04/21 08:50:41;;;;;;;10.10;9.10;;;;;;;13.77;46.69;99704.66;4948691;28;20410;-71
2022/04/21 08:53:08;;;;;;;10.40;9.38;;;;;;;13.92;46.81;99706.47;4950052;28;20425;-70
2022/04/21 08:55:33;;;;;;;13.07;9.75;;;;;;;14.09;46.79;99709.59;4965959;28;20410;-71
2022/04/21 08:58:00;;;;;;;12.10;8.93;;;;;;;14.35;46.29;99702.84;4952507;29;20417;-70
2022/04/21 09:00:25;;;;;;;9.68;8.88;;;;;;;14.57;45.75;99699.59;4953021;28;20434;-70
2022/04/21 09:02:51;;;;;;;11.60;9.63;;;;;;;14.77;45.14;99707.56;4958217;28;20452;-70
2022/04/21 09:05:16;;;;;;;10.00;9.00;;;;;;;14.97;44.98;99701.03;4952604;28;20405;-71
2022/04/21 09:07:49;;;;;;;12.48;9.05;;;;;;;15.23;43.77;99696.88;4950800;28;20402;-70
2022/04/21 09:10:15;;;;;;;9.88;8.35;;;;;;;15.63;43.29;99700.16;4952367;29;20437;-70
2022/04/21 09:12:44;;;;;;;12.48;8.32;;;;;;;16.12;41.49;99699.63;4948419;28;20952;-70
2022/04/21 09:15:14;;;;;;;10.98;9.43;;;;;;;16.46;40.71;99689.19;4962946;28;20417;-70
2022/04/21 09:17:53;;;;;;;10.95;9.90;;;;;;;16.47;40.43;99694.34;4942648;29;20410;-74
2022/04/21 09:20:23;;;;;;;9.30;8.38;;;;;;;16.61;41.01;99691.66;4953639;28;20444;-73
2022/04/21 09:22:54;;;;;;;10.18;8.30;;;;;;;17.20;40.23;99687.97;4952763;28;20402;-74
2022/04/21 09:25:26;;;;;;;9.55;8.25;;;;;;;17.42;38.96;99684.50;4952597;28;20410;-74
2022/04/21 09:27:58;;;;;;;12.88;8.40;;;;;;;17.78;38.24;99681.75;4969350;28;20409;-74
2022/04/21 09:30:27;;;;;;;8.18;7.38;;;;;;;18.46;37.67;99679.44;4949272;28;20402;-74
2022/04/21 09:32:55;;;;;;;10.93;9.48;;;;;;;19.16;35.82;99678.59;4942663;28;20453;-76
2022/04/21 09:35:27;;;;;;;9.38;8.57;;;;;;;19.31;35.22;99677.28;4967115;28;20414;-74
2022/04/21 09:37:58;;;;;;;13.27;8.57;;;;;;;19.63;34.83;99674.13;4948886;28;20406;-73
2022/04/21 09:40:29;;;;;;;10.43;8.68;;;;;;;19.94;33.91;99672.00;4951163;28;20430;-74
2022/04/21 09:42:58;;;;;;;10.57;8.95;;;;;;;20.12;33.01;99672.78;4954666;29;20414;-73
2022/04/21 09:48:26;;;;;;;8.00;7.10;;;;;;;20.99;31.95;99663.06;4954992;29;20951;-73
2022/04/21 09:50:56;;;;;;;7.80;7.15;;;;;;;21.13;32.23;99658.97;4951214;28;20876;-74
2022/04/21 09:53:25;;;;;;;11.02;7.18;;;;;;;20.75;32.51;99660.16;4949156;28;20916;-73
2022/04/21 09:55:52;;;;;;;7.88;7.07;;;;;;;20.40;33.03;99653.94;4969643;28;20912;-73
2022/04/21 09:58:19;;;;;;;8.33;7.00;;;;;;;20.49;32.92;99660.22;4952650;29;20418;-74
2022/04/21 10:00:47;;;;;;;10.52;7.00;;;;;;;20.82;32.59;99652.94;4946412;28;20393;-74
2022/04/21 10:03:16;;;;;;;7.15;6.47;;;;;;;21.13;31.77;99644.38;4967668;28;20777;-74
2022/04/21 10:05:42;;;;;;;10.85;7.13;;;;;;;21.54;31.17;99655.41;4966214;28;20401;-74
2022/04/21 10:08:10;;;;;;;6.43;5.90;;;;;;;22.23;30.18;99640.97;4949959;29;20402;-74
2022/04/21 10:10:37;;;;;;;6.03;5.45;;;;;;;22.98;28.91;99633.25;4951970;28;20441;-74
2022/04/21 10:13:05;;;;;;;9.25;6.60;;;;;;;23.24;28.28;99631.72;4969428;28;20421;-74
2022/04/21 10:15:31;;;;;;;6.43;5.82;;;;;;;23.89;27.56;99634.41;4955746;28;20813;-74
2022/04/21 10:17:57;;;;;;;6.43;5.90;;;;;;;24.70;26.88;99623.50;4954482;28;20414;-75
2022/04/21 10:20:24;;;;;;;8.80;5.95;;;;;;;24.84;25.33;99625.84;4956347;28;20411;-75
2022/04/21 10:22:51;;;;;;;7.78;5.30;;;;;;;25.03;25.17;99616.78;4948937;28;20424;-74
2022/04/21 10:25:23;;;;;;;5.35;5.03;;;;;;;25.39;25.21;99610.84;4973611;28;20413;-73
2022/04/21 10:27:50;;;;;;;6.55;5.03;;;;;;;25.47;24.72;99604.28;4955726;28;20500;-73
2022/04/21 10:30:31;;;;;;;4.70;4.28;;;;;;;25.44;24.50;99602.25;4956127;28;20405;-74
2022/04/21 10:33:01;;;;;;;5.32;4.65;;;;;;;26.11;24.44;99594.47;4949360;28;20422;-71
2022/04/21 10:35:36;;;;;;;7.45;4.70;;;;;;;26.33;24.31;99590.13;4945612;28;20411;-72
2022/04/21 10:38:25;;;;;;;4.80;4.40;;;;;;;25.74;24.29;99597.75;4954699;28;20540;-75
2022/04/21 10:41:06;;;;;;;4.22;3.83;;;;;;;25.83;24.55;99597.50;4974042;28;20421;-74
2022/04/21 10:43:51;;;;;;;2.97;2.78;;;;;;;25.85;23.90;99586.88;4960038;28;20511;-72
2022/04/21 10:46:21;;;;;;;3.20;3.00;;;;;;;26.14;23.86;99582.63;4963452;28;20824;-72
2022/04/21 10:48:46;;;;;;;3.42;2.83;;;;;;;26.40;23.29;99574.38;4952293;28;20418;-74
2022/04/21 10:51:13;;;;;;;3.38;3.13;;;;;;;26.21;23.20;99575.25;4942629;28;20482;-74
2022/04/21 10:59:30;;;;;;;2.78;2.42;;;;;;;26.12;23.59;99569.09;4956122;28;20433;-74
2022/04/21 11:02:12;;;;;;;3.10;2.90;;;;;;;25.80;23.77;99565.75;4985424;28;20893;-74
2022/04/21 11:04:39;;;;;;;3.17;1.70;;;;;;;25.47;23.67;99559.91;4953170;28;20421;-74
2022/04/21 11:07:13;;;;;;;8.07;2.08;;;;;;;25.47;23.67;99567.44;4968353;28;20455;-74
2022/04/21 11:09:50;;;;;;;3.33;2.42;;;;;;;25.45;24.45;99561.44;4952147;29;20417;-71
2022/04/21 11:12:38;;;;;;;3.33;2.58;;;;;;;25.18;24.38;99550.22;4954304;28;20425;-74
2022/04/21 11:15:29;;;;;;;2.97;2.65;;;;;;;25.45;24.46;99547.59;4954246;28;20428;-74
2022/04/21 11:18:24;;;;;;;2.72;2.35;;;;;;;25.23;23.92;99543.56;4987740;28;20853;-71
2022/04/21 11:20:52;;;;;;;3.67;3.37;;;;;;;25.61;24.09;99549.13;4952656;28;20772;-72
2022/04/21 11:23:45;;;;;;;2.20;2.10;;;;;;;25.43;24.50;99545.16;4971512;28;20414;-72
2022/04/21 11:26:11;;;;;;;3.05;1.90;;;;;;;25.30;24.31;99543.72;4955016;29;20418;-74
2022/04/21 11:28:47;;;;;;;2.10;2.00;;;;;;;25.32;24.48;99544.16;4955720;28;20401;-74
2022/04/21 11:31:14;;;;;;;3.95;3.35;;;;;;;25.72;24.39;99538.22;4986049;28;20417;-74
2022/04/21 11:33:44;;;;;;;4.65;3.00;;;;;;;26.25;24.09;99530.88;4954715;28;20446;-73
2022/04/21 11:36:13;;;;;;;3.85;2.63;;;;;;;26.36;23.39;99525.50;4952680;28;20409;-75
2022/04/21 11:38:45;;;;;;;4.10;3.47;;;;;;;26.41;23.79;99525.97;4968278;28;20424;-74
2022/04/21 11:41:16;;;;;;;2.90;2.50;;;;;;;26.29;24.04;99518.66;4955952;28;20402;-74
2022/04/21 11:43:51;;;;;;;3.25;3.05;;;;;;;26.77;23.65;99525.31;4955024;28;20413;-73
2022/04/21 11:46:24;;;;;;;3.75;3.55;;;;;;;27.09;23.30;99514.69;4955359;28;20542;-74
2022/04/21 11:49:00;;;;;;;3.22;2.92;;;;;;;27.32;23.33;99514.56;4985487;28;20398;-74
2022/04/21 11:51:31;;;;;;;4.32;3.25;;;;;;;27.41;23.13;99512.28;4969310;28;20871;-74
2022/04/21 11:54:10;;;;;;;6.90;4.13;;;;;;;27.83;23.06;99509.97;4966677;28;20839;-72
2022/04/21 11:56:39;;;;;;;3.60;3.13;;;;;;;27.66;22.16;99505.03;4984270;28;20402;-72
2022/04/21 11:59:08;;;;;;;6.05;3.58;;;;;;;26.95;23.06;99516.47;4952758;28;20414;-74
2022/04/21 12:07:08;;;;;;;5.80;4.50;;;;;;;26.84;24.16;99490.53;4955485;28;20757;-74
2022/04/21 12:09:39;;;;;;;3.33;3.05;;;;;;;26.93;23.42;99494.63;4955571;28;20756;-74
2022/04/21 12:12:10;;;;;;;3.33;3.13;;;;;;;27.38;22.84;99496.34;4954523;28;20537;-71
2022/04/21 12:14:43;;;;;;;4.28;3.13;;;;;;;27.49;23.46;99496.50;4960655;28;20778;-72
2022/04/21 12:17:17;;;;;;;3.03;2.80;;;;;;;28.24;22.80;99496.88;4980705;28;20422;-72
2022/04/21 12:19:45;;;;;;;2.75;2.63;;;;;;;28.07;22.40;99497.50;4952207;29;20425;-72
2022/04/21 12:22:19;;;;;;;3.60;3.30;;;;;;;27.28;22.81;99492.28;4953070;28;20837;-72
2022/04/21 12:24:51;;;;;;;5.10;3.40;;;;;;;25.87;24.08;99492.13;4952198;28;22222;-72
2022/04/21 12:27:22;;;;;;;3.20;3.00;;;;;;;25.05;26.00;99489.72;4961961;28;20764;-72
2022/04/21 12:29:50;;;;;;;5.05;3.10;;;;;;;24.91;25.88;99486.63;4959135;28;20398;-73
2022/04/21 12:32:26;;;;;;;3.80;3.33;;;;;;;25.98;25.70;99470.91;4960322;28;20453;-72
2022/04/21 12:34:56;;;;;;;4.38;2.85;;;;;;;26.30;24.72;99473.03;4970176;28;20423;-72
2022/04/21 12:37:29;;;;;;;3.70;3.30;;;;;;;25.22;25.39;99462.38;4951163;29;20406;-72
2022/04/21 12:39:56;;;;;;;4.75;3.13;;;;;;;24.62;26.39;99471.34;4954086;28;20437;-72
2022/04/21 12:42:22;;;;;;;4.03;3.72;;;;;;;24.29;26.27;99477.31;4946967;29;20415;-71
2022/04/21 12:44:50;;;;;;;3.35;3.15;;;;;;;23.61;27.40;99474.00;4949389;28;20414;-72
2022/04/21 12:47:17;;;;;;;3.88;3.40;;;;;;;23.99;27.73;99471.41;4968063;28;20397;-72
2022/04/21 12:50:08;;;;;;;5.85;3.85;;;;;;;24.92;26.75;99458.56;4952564;29;20402;-72
2022/04/21 12:52:36;;;;;;;6.50;3.58;;;;;;;25.73;25.63;99462.94;4950740;28;20431;-70
2022/04/21 13:41:40;;;;;;;12.90;3.60;;;;;;;22.44;30.54;99420.88;5084533;27;20388;-73
2022/04/21 13:44:06;;;;;;;3.20;2.90;;;;;;;22.66;30.72;99409.31;5048387;28;20411;-73
2022/04/21 13:46:33;;;;;;;3.40;3.10;;;;;;;23.39;29.53;99417.28;5048044;28;20452;-73
2022/04/21 13:48:58;;;;;;;2.55;2.45;;;;;;;23.95;28.36;99411.59;5033435;28;20390;-73
2022/04/21 13:51:24;;;;;;;3.57;3.37;;;;;;;23.62;28.22;99415.53;5040011;28;20429;-73
2022/04/21 13:53:51;;;;;;;3.95;3.47;;;;;;;23.17;29.20;99413.16;5037002;28;20894;-73
2022/04/21 13:56:16;;;;;;;4.63;3.58;;;;;;;22.68;29.57;99414.50;5028677;28;20419;-73
2022/04/21 13:58:41;;;;;;;3.80;3.50;;;;;;;22.60;30.09;99418.16;5030807;28;20928;-73
2022/04/21 14:01:07;;;;;;;3.80;3.50;;;;;;;22.53;30.26;99401.38;5080839;28;20416;-74
2022/04/21 14:03:36;;;;;;;3.37;2.93;;;;;;;22.64;30.56;99408.84;5035694;28;20903;-73
2022/04/21 14:06:06;;;;;;;4.83;3.73;;;;;;;22.60;30.15;99407.13;5039672;28;20422;-73
2022/04/21 14:08:35;;;;;;;3.80;3.42;;;;;;;22.29;30.92;99410.56;5037837;28;20394;-73
2022/04/21 14:11:01;;;;;;;4.50;3.97;;;;;;;22.41;30.47;99401.44;5039148;28;20408;-73
2022/04/21 14:13:26;;;;;;;5.35;3.80;;;;;;;22.29;30.74;99401.47;5030171;28;20404;-73
2022/04/21 14:15:52;;;;;;;9.07;6.80;;;;;;;22.99;30.33;99408.25;5041389;28;20974;-73
2022/04/21 14:18:17;;;;;;;5.73;3.60;;;;;;;23.80;28.76;99398.59;5029494;28;20418;-73
2022/04/21 14:20:43;;;;;;;3.93;3.63;;;;;;;23.46;28.82;99400.91;5040850;28;20773;-73
2022/04/21 14:23:08;;;;;;;38.15;6.50;;;;;;;23.99;28.13;99390.34;5032328;28;20764;-73
2022/04/21 14:25:33;;;;;;;6.32;3.20;;;;;;;23.72;28.19;99381.81;5042735;28;20411;-74
2022/04/21 14:27:59;;;;;;;3.67;3.27;;;;;;;24.15;27.95;99388.38;5031355;28;20891;-73
2022/04/21 14:30:25;;;;;;;3.47;3.17;;;;;;;24.34;27.33;99385.63;5041549;28;20398;-73
2022/04/21 14:32:50;;;;;;;3.83;3.40;;;;;;;23.96;27.95;99380.00;5045282;28;20425;-73
2022/04/21 14:35:18;;;;;;;4.50;2.80;;;;;;;24.58;27.79;99388.16;5033985;28;20946;-73
2022/04/21 14:45:55;;;;;;;3.15;2.92;;;;;;;22.67;29.67;99386.09;5035303;28;20399;-73
2022/04/21 14:48:22;;;;;;;4.10;3.20;;;;;;;22.94;29.42;99386.44;5034507;28;20773;-73
2022/04/21 14:50:47;;;;;;;2.90;2.70;;;;;;;23.63;28.58;99367.38;5023207;28;21055;-73
2022/04/21 14:53:12;;;;;;;3.58;2.50;;;;;;;23.42;28.01;99385.38;5010273;28;20427;-73
2022/04/21 14:55:40;;;;;;;3.63;3.00;;;;;;;22.93;29.05;99374.56;5009647;28;20418;-73
2022/04/21 14:58:06;;;;;;;4.85;2.60;;;;;;;22.96;28.99;99375.81;5010811;28;20842;-73
2022/04/21 15:00:31;;;;;;;3.80;2.78;;;;;;;22.94;29.66;99378.16;5013054;28;20452;-73
2022/04/21 15:02:57;;;;;;;3.75;2.60;;;;;;;23.01;29.14;99379.16;5011155;28;20447;-73
2022/04/21 15:05:22;;;;;;;3.40;3.20;;;;;;;23.39;29.43;99372.22;5010514;28;20436;-73
2022/04/21 15:07:47;;;;;;;11.50;9.13;;;;;;;23.44;28.65;99375.59;5009698;28;20408;-73
2022/04/21 15:10:13;;;;;;;6.10;4.55;;;;;;;23.35;28.84;99377.66;5011121;28;20491;-73
2022/04/21 15:12:38;;;;;;;7.80;3.07;;;;;;;23.30;29.33;99374.38;5018088;28;20473;-73
2022/04/21 15:15:04;;;;;;;3.30;3.00;;;;;;;23.46;28.89;99372.44;5011887;28;20419;-73
2022/04/21 15:17:29;;;;;;;6.03;2.95;;;;;;;23.30;28.80;99377.94;5009345;28;20761;-73
2022/04/21 15:19:55;;;;;;;4.40;3.05;;;;;;;23.32;28.96;99383.91;5009612;28;20423;-73